Firefly — MZPF6 — position and weather

sailwx.info

Track history (hours):
 
Tides and Currents Weather Stations Pressure Air Temp Water Temp Dewpoint Dewpoint Depression Visibility Wind Speed Wind Dir Waves Ship Positions

Firefly

Last reported at 2018-Jun-08 20:25 UTC. Time now 2018-Jun-17 22:04 UTC.
Position N 37°51' W 024°35'.
Warning: this ship's position is 9 days out of date.

Length 13 m.

Type: Sailing vessel. MMSI: 232004518.

Date/timePositionNaut miles runAvg speedWind from/ knotsBaromVisibWave heightAir tempDewpointWater temp
2018-Jun-08 20:25N 37°51' W 024°35'3 6.5
2018-Jun-08 19:54N 37°50' W 024°39'3 6.5
2018-Jun-08 19:31N 37°49' W 024°42'4 6.8
2018-Jun-08 18:59N 37°48' W 024°47'3 7.0
2018-Jun-08 18:30N 37°47' W 024°51'3 6.9
2018-Jun-08 18:00N 37°46' W 024°55'4 7.6
2018-Jun-08 17:30N 37°45' W 024°60'4 7.5
2018-Jun-08 17:00N 37°44' W 025°04'3 6.8
2018-Jun-08 16:30N 37°43' W 025°08'3 5.2
2018-Jun-08 15:59N 37°43' W 025°12'3 6.0
2018-Jun-08 15:30N 37°42' W 025°15'3 6.2
2018-Jun-08 15:00N 37°42' W 025°19'3 5.9
2018-Jun-08 14:30N 37°42' W 025°23'9 6.6
2018-Jun-08 13:07N 37°42' W 025°34'1 8.1
2018-Jun-08 13:00N 37°43' W 025°35'3 6.2
2018-Jun-08 12:30N 37°44' W 025°39'  
2018-Jun-05 09:18N 37°44' W 025°40'0 0.0
2018-Jun-05 09:00N 37°44' W 025°40'1 2.2
2018-Jun-05 08:30N 37°44' W 025°41'3 6.1
2018-Jun-05 08:01N 37°44' W 025°45'3 5.3
2018-Jun-05 07:30N 37°45' W 025°48'2 4.9
2018-Jun-05 07:00N 37°46' W 025°51'3 5.4
2018-Jun-05 06:30N 37°47' W 025°54'3 6.9
2018-Jun-05 06:00N 37°49' W 025°58'3 6.6
2018-Jun-05 05:30N 37°51' W 026°01'3 6.3
2018-Jun-05 05:00N 37°52' W 026°05'4 7.2
2018-Jun-05 04:30N 37°54' W 026°09'4 7.2
2018-Jun-05 03:59N 37°56' W 026°13'3 6.7
2018-Jun-05 03:30N 37°57' W 026°16'3 6.3
2018-Jun-05 03:00N 37°59' W 026°20'3 6.1
2018-Jun-05 02:30N 38°01' W 026°23'3 6.1
2018-Jun-05 01:58N 38°03' W 026°26'3 7.2
2018-Jun-05 01:29N 38°05' W 026°30'  
2018-Jun-02 13:30N 38°31' W 027°48'3 5.8
2018-Jun-02 13:00N 38°31' W 027°51'5 6.7
2018-Jun-02 12:16N 38°33' W 027°57'2 7.0
2018-Jun-02 11:59N 38°33' W 027°60'3 6.7
2018-Jun-02 11:30N 38°34' W 028°04'3 6.5
2018-Jun-02 11:00N 38°34' W 028°08'3 6.1
2018-Jun-02 10:30N 38°34' W 028°12'3 5.9
2018-Jun-02 10:00N 38°33' W 028°16'3 6.1
2018-Jun-02 09:30N 38°33' W 028°20'3 6.6
2018-Jun-02 09:00N 38°34' W 028°24'3 6.1
2018-Jun-02 08:30N 38°34' W 028°28'3 5.8
2018-Jun-02 08:00N 38°34' W 028°31'3 7.1
2018-Jun-02 07:30N 38°32' W 028°35'  
Track history (hours):
 
Tides and Currents Weather Stations Pressure Air Temp Water Temp Dewpoint Dewpoint Depression Visibility Wind Speed Wind Dir Waves Ship Positions

Firefly

Last reported at 2018-Jun-08 20:25 UTC. Time now 2018-Jun-17 22:04 UTC.
Position N 37°51' W 024°35'.
Warning: this ship's position is 9 days out of date.

Length 13 m.

Type: Sailing vessel. MMSI: 232004518.

Date/timePositionNaut miles runAvg speedWind from/ knotsBaromVisibWave heightAir tempDewpointWater temp
2018-Jun-08 20:25N 37°51' W 024°35'3 6.5
2018-Jun-08 19:54N 37°50' W 024°39'3 6.5
2018-Jun-08 19:31N 37°49' W 024°42'4 6.8
2018-Jun-08 18:59N 37°48' W 024°47'3 7.0
2018-Jun-08 18:30N 37°47' W 024°51'3 6.9
2018-Jun-08 18:00N 37°46' W 024°55'4 7.6
2018-Jun-08 17:30N 37°45' W 024°60'4 7.5
2018-Jun-08 17:00N 37°44' W 025°04'3 6.8
2018-Jun-08 16:30N 37°43' W 025°08'3 5.2
2018-Jun-08 15:59N 37°43' W 025°12'3 6.0
2018-Jun-08 15:30N 37°42' W 025°15'3 6.2
2018-Jun-08 15:00N 37°42' W 025°19'3 5.9
2018-Jun-08 14:30N 37°42' W 025°23'9 6.6
2018-Jun-08 13:07N 37°42' W 025°34'1 8.1
2018-Jun-08 13:00N 37°43' W 025°35'3 6.2
2018-Jun-08 12:30N 37°44' W 025°39'  
2018-Jun-05 09:18N 37°44' W 025°40'0 0.0
2018-Jun-05 09:00N 37°44' W 025°40'1 2.2
2018-Jun-05 08:30N 37°44' W 025°41'3 6.1
2018-Jun-05 08:01N 37°44' W 025°45'3 5.3
2018-Jun-05 07:30N 37°45' W 025°48'2 4.9
2018-Jun-05 07:00N 37°46' W 025°51'3 5.4
2018-Jun-05 06:30N 37°47' W 025°54'3 6.9
2018-Jun-05 06:00N 37°49' W 025°58'3 6.6
2018-Jun-05 05:30N 37°51' W 026°01'3 6.3
2018-Jun-05 05:00N 37°52' W 026°05'4 7.2
2018-Jun-05 04:30N 37°54' W 026°09'4 7.2
2018-Jun-05 03:59N 37°56' W 026°13'3 6.7
2018-Jun-05 03:30N 37°57' W 026°16'3 6.3
2018-Jun-05 03:00N 37°59' W 026°20'3 6.1
2018-Jun-05 02:30N 38°01' W 026°23'3 6.1
2018-Jun-05 01:58N 38°03' W 026°26'3 7.2
2018-Jun-05 01:29N 38°05' W 026°30'  
2018-Jun-02 13:30N 38°31' W 027°48'3 5.8
2018-Jun-02 13:00N 38°31' W 027°51'5 6.7
2018-Jun-02 12:16N 38°33' W 027°57'2 7.0
2018-Jun-02 11:59N 38°33' W 027°60'3 6.7
2018-Jun-02 11:30N 38°34' W 028°04'3 6.5
2018-Jun-02 11:00N 38°34' W 028°08'3 6.1
2018-Jun-02 10:30N 38°34' W 028°12'3 5.9
2018-Jun-02 10:00N 38°33' W 028°16'3 6.1
2018-Jun-02 09:30N 38°33' W 028°20'3 6.6
2018-Jun-02 09:00N 38°34' W 028°24'3 6.1
2018-Jun-02 08:30N 38°34' W 028°28'3 5.8
2018-Jun-02 08:00N 38°34' W 028°31'3 7.1
2018-Jun-02 07:30N 38°32' W 028°35'  

Dump ship's entire track history